Makita — V2ET2 — position and weather

sailwx.info

Track history (hours):
 
Tides and Currents Weather Stations Pressure Air Temp Water Temp Dewpoint Dewpoint Depression Visibility Wind Speed Wind Dir Waves Ship Positions

Makita

Last reported at 2015-Feb-17 19:08 UTC. Time now 2015-Apr-01 16:39 UTC.
Position N 01°17' E 103°46'.
Warning: this ship's position is 42 days out of date.

Length 260 m; draft 11.9 m.

Type: Cargo ship. MMSI: 305543000.

Date/timePositionNaut miles runAvg speedWind from/ knotsBaromVisibWave heightAir tempDewpointWater temp
2015-Feb-17 19:08N 01°17' E 103°46'5 3.0
2015-Feb-17 17:33N 01°13' E 103°48'9 8.7
2015-Feb-17 16:33N 01°15' E 103°57'1110.5
2015-Feb-17 15:33N 01°16' E 104°07'  
2015-Feb-13 15:04N 22°08' E 114°15'14 9.3
2015-Feb-13 13:33N 22°20' E 114°07'0 0.3
2015-Feb-13 12:19N 22°20' E 114°08'0 0.1
2015-Feb-13 11:28N 22°20' E 114°08'0 0.1
2015-Feb-13 10:31N 22°20' E 114°08'0 0.0
2015-Feb-13 07:04N 22°20' E 114°08'0 0.0
2015-Feb-13 05:06N 22°20' E 114°08'1 2.4
2015-Feb-13 04:33N 22°19' E 114°07'16 7.0
2015-Feb-13 02:15N 22°09' E 114°20'811.1
2015-Feb-13 01:30N 22°09' E 114°29'3 0.8
2015-Feb-12 22:14N 22°10' E 114°32'109 9.3
2015-Feb-12 10:33N 22°33' E 116°27'1411.2
2015-Feb-12 09:20N 22°42' E 116°38'1111.2
2015-Feb-12 08:22N 22°48' E 116°47'911.0
2015-Feb-12 07:33N 22°54' E 116°55'1111.0
2015-Feb-12 06:32N 23°01' E 117°04'4611.1
2015-Feb-12 02:25N 23°29' E 117°44'1411.7
2015-Feb-12 01:12N 23°38' E 117°55'912.2
2015-Feb-12 00:28N 23°45' E 118°02'1112.0
2015-Feb-11 23:33N 23°51' E 118°12'1212.1
2015-Feb-11 22:32N 23°58' E 118°23'1211.8
2015-Feb-11 21:33N 24°04' E 118°34'1211.9
2015-Feb-11 20:33N 24°12' E 118°44'1211.6
2015-Feb-11 19:33N 24°19' E 118°54'1111.1
2015-Feb-11 18:32N 24°25' E 119°04'1110.8
2015-Feb-11 17:33N 24°32' E 119°13'1110.6
2015-Feb-11 16:33N 24°38' E 119°23'1010.1
2015-Feb-11 15:33N 24°44' E 119°32'1010.0
2015-Feb-11 14:33N 24°50' E 119°41'1010.0
2015-Feb-11 13:33N 24°56' E 119°49'1010.0
2015-Feb-11 12:31N 25°03' E 119°58'1410.1
2015-Feb-11 11:08N 25°13' E 120°09'610.0
2015-Feb-11 10:30N 25°18' E 120°13'27415.3
2015-Feb-10 16:33N 29°23' E 122°30'1514.4
2015-Feb-10 15:33N 29°38' E 122°30'1414.6
2015-Feb-10 14:33N 29°47' E 122°17'10 9.6
2015-Feb-10 13:33N 29°48' E 122°06'5 4.0
2015-Feb-10 12:20N 29°46' E 122°00'0 0.0
2015-Feb-10 09:20N 29°46' E 122°00'0 0.1
2015-Feb-10 08:20N 29°46' E 122°00'0 0.0
2015-Feb-10 07:32N 29°46' E 122°00'0 0.0
2015-Feb-10 06:14N 29°46' E 122°00'0 0.0
2015-Feb-10 03:26N 29°46' E 122°00'0 0.0
2015-Feb-10 01:08N 29°46' E 122°00'0 0.0
2015-Feb-09 23:32N 29°46' E 122°00'0 0.0
2015-Feb-09 22:32N 29°46' E 122°00'0 0.0
2015-Feb-09 21:14N 29°46' E 122°00'0 0.0
2015-Feb-09 20:32N 29°46' E 122°00'0 0.0
2015-Feb-09 19:32N 29°46' E 122°00'0 0.0
2015-Feb-09 18:14N 29°46' E 122°00'0 0.0
2015-Feb-09 12:33N 29°46' E 122°00'4 3.7
2015-Feb-09 11:34N 29°48' E 122°04'9 9.1
2015-Feb-09 10:33N 29°48' E 122°15'1110.9
2015-Feb-09 09:33N 29°44' E 122°26'8 7.8
2015-Feb-09 08:32N 29°47' E 122°35'0 0.1
2015-Feb-09 07:32N 29°47' E 122°35'0 0.0
2015-Feb-09 06:26N 29°47' E 122°35'0 0.0
2015-Feb-09 05:32N 29°47' E 122°35'0 0.1
2015-Feb-09 04:32N 29°47' E 122°35'0 0.0
2015-Feb-09 03:26N 29°47' E 122°35'0 0.0
2015-Feb-09 02:14N 29°47' E 122°35'0 0.0
2015-Feb-09 01:32N 29°47' E 122°35'0 0.1
2015-Feb-09 00:32N 29°47' E 122°35'0 0.0
2015-Feb-08 23:32N 29°47' E 122°35'0 0.0
2015-Feb-08 22:20N 29°47' E 122°35'0 0.0
2015-Feb-08 21:32N 29°47' E 122°35'0 0.0
2015-Feb-08 20:32N 29°47' E 122°35'1 0.7
2015-Feb-08 19:33N 29°46' E 122°35'8 7.5
2015-Feb-08 18:32N 29°49' E 122°44'5410.2
2015-Feb-08 13:11N 30°42' E 122°57'4111.4
2015-Feb-08 09:33N 31°06' E 122°18'1212.0
2015-Feb-08 08:34N 31°13' E 122°07'1110.7
2015-Feb-08 07:34N 31°16' E 121°55'1110.6
2015-Feb-08 06:34N 31°19' E 121°43'3 2.8
2015-Feb-08 05:33N 31°20' E 121°40'0 0.0
2015-Feb-08 04:33N 31°20' E 121°40'0 0.0
2015-Feb-08 03:33N 31°20' E 121°40'0 0.0
2015-Feb-08 02:33N 31°20' E 121°40'0 0.0
2015-Feb-08 01:33N 31°20' E 121°40'0 0.1
2015-Feb-08 00:33N 31°20' E 121°40'0 0.1
2015-Feb-07 23:33N 31°20' E 121°40'0 0.0
2015-Feb-07 22:30N 31°20' E 121°40'0 0.0
2015-Feb-07 21:33N 31°20' E 121°40'0 0.0
2015-Feb-07 20:33N 31°20' E 121°40'0 0.0
2015-Feb-07 19:33N 31°20' E 121°40'  
Track history (hours):
 
Tides and Currents Weather Stations Pressure Air Temp Water Temp Dewpoint Dewpoint Depression Visibility Wind Speed Wind Dir Waves Ship Positions

Makita

Last reported at 2015-Feb-17 19:08 UTC. Time now 2015-Apr-01 16:39 UTC.
Position N 01°17' E 103°46'.
Warning: this ship's position is 42 days out of date.

Length 260 m; draft 11.9 m.

Type: Cargo ship. MMSI: 305543000.

Date/timePositionNaut miles runAvg speedWind from/ knotsBaromVisibWave heightAir tempDewpointWater temp
2015-Feb-17 19:08N 01°17' E 103°46'5 3.0
2015-Feb-17 17:33N 01°13' E 103°48'9 8.7
2015-Feb-17 16:33N 01°15' E 103°57'1110.5
2015-Feb-17 15:33N 01°16' E 104°07'  
2015-Feb-13 15:04N 22°08' E 114°15'14 9.3
2015-Feb-13 13:33N 22°20' E 114°07'0 0.3
2015-Feb-13 12:19N 22°20' E 114°08'0 0.1
2015-Feb-13 11:28N 22°20' E 114°08'0 0.1
2015-Feb-13 10:31N 22°20' E 114°08'0 0.0
2015-Feb-13 07:04N 22°20' E 114°08'0 0.0
2015-Feb-13 05:06N 22°20' E 114°08'1 2.4
2015-Feb-13 04:33N 22°19' E 114°07'16 7.0
2015-Feb-13 02:15N 22°09' E 114°20'811.1
2015-Feb-13 01:30N 22°09' E 114°29'3 0.8
2015-Feb-12 22:14N 22°10' E 114°32'109 9.3
2015-Feb-12 10:33N 22°33' E 116°27'1411.2
2015-Feb-12 09:20N 22°42' E 116°38'1111.2
2015-Feb-12 08:22N 22°48' E 116°47'911.0
2015-Feb-12 07:33N 22°54' E 116°55'1111.0
2015-Feb-12 06:32N 23°01' E 117°04'4611.1
2015-Feb-12 02:25N 23°29' E 117°44'1411.7
2015-Feb-12 01:12N 23°38' E 117°55'912.2
2015-Feb-12 00:28N 23°45' E 118°02'1112.0
2015-Feb-11 23:33N 23°51' E 118°12'1212.1
2015-Feb-11 22:32N 23°58' E 118°23'1211.8
2015-Feb-11 21:33N 24°04' E 118°34'1211.9
2015-Feb-11 20:33N 24°12' E 118°44'1211.6
2015-Feb-11 19:33N 24°19' E 118°54'1111.1
2015-Feb-11 18:32N 24°25' E 119°04'1110.8
2015-Feb-11 17:33N 24°32' E 119°13'1110.6
2015-Feb-11 16:33N 24°38' E 119°23'1010.1
2015-Feb-11 15:33N 24°44' E 119°32'1010.0
2015-Feb-11 14:33N 24°50' E 119°41'1010.0
2015-Feb-11 13:33N 24°56' E 119°49'1010.0
2015-Feb-11 12:31N 25°03' E 119°58'1410.1
2015-Feb-11 11:08N 25°13' E 120°09'610.0
2015-Feb-11 10:30N 25°18' E 120°13'27415.3
2015-Feb-10 16:33N 29°23' E 122°30'1514.4
2015-Feb-10 15:33N 29°38' E 122°30'1414.6
2015-Feb-10 14:33N 29°47' E 122°17'10 9.6
2015-Feb-10 13:33N 29°48' E 122°06'5 4.0
2015-Feb-10 12:20N 29°46' E 122°00'0 0.0
2015-Feb-10 09:20N 29°46' E 122°00'0 0.1
2015-Feb-10 08:20N 29°46' E 122°00'0 0.0
2015-Feb-10 07:32N 29°46' E 122°00'0 0.0
2015-Feb-10 06:14N 29°46' E 122°00'0 0.0
2015-Feb-10 03:26N 29°46' E 122°00'0 0.0
2015-Feb-10 01:08N 29°46' E 122°00'0 0.0
2015-Feb-09 23:32N 29°46' E 122°00'0 0.0
2015-Feb-09 22:32N 29°46' E 122°00'0 0.0
2015-Feb-09 21:14N 29°46' E 122°00'0 0.0
2015-Feb-09 20:32N 29°46' E 122°00'0 0.0
2015-Feb-09 19:32N 29°46' E 122°00'0 0.0
2015-Feb-09 18:14N 29°46' E 122°00'0 0.0
2015-Feb-09 12:33N 29°46' E 122°00'4 3.7
2015-Feb-09 11:34N 29°48' E 122°04'9 9.1
2015-Feb-09 10:33N 29°48' E 122°15'1110.9
2015-Feb-09 09:33N 29°44' E 122°26'8 7.8
2015-Feb-09 08:32N 29°47' E 122°35'0 0.1
2015-Feb-09 07:32N 29°47' E 122°35'0 0.0
2015-Feb-09 06:26N 29°47' E 122°35'0 0.0
2015-Feb-09 05:32N 29°47' E 122°35'0 0.1
2015-Feb-09 04:32N 29°47' E 122°35'0 0.0
2015-Feb-09 03:26N 29°47' E 122°35'0 0.0
2015-Feb-09 02:14N 29°47' E 122°35'0 0.0
2015-Feb-09 01:32N 29°47' E 122°35'0 0.1
2015-Feb-09 00:32N 29°47' E 122°35'0 0.0
2015-Feb-08 23:32N 29°47' E 122°35'0 0.0
2015-Feb-08 22:20N 29°47' E 122°35'0 0.0
2015-Feb-08 21:32N 29°47' E 122°35'0 0.0
2015-Feb-08 20:32N 29°47' E 122°35'1 0.7
2015-Feb-08 19:33N 29°46' E 122°35'8 7.5
2015-Feb-08 18:32N 29°49' E 122°44'5410.2
2015-Feb-08 13:11N 30°42' E 122°57'4111.4
2015-Feb-08 09:33N 31°06' E 122°18'1212.0
2015-Feb-08 08:34N 31°13' E 122°07'1110.7
2015-Feb-08 07:34N 31°16' E 121°55'1110.6
2015-Feb-08 06:34N 31°19' E 121°43'3 2.8
2015-Feb-08 05:33N 31°20' E 121°40'0 0.0
2015-Feb-08 04:33N 31°20' E 121°40'0 0.0
2015-Feb-08 03:33N 31°20' E 121°40'0 0.0
2015-Feb-08 02:33N 31°20' E 121°40'0 0.0
2015-Feb-08 01:33N 31°20' E 121°40'0 0.1
2015-Feb-08 00:33N 31°20' E 121°40'0 0.1
2015-Feb-07 23:33N 31°20' E 121°40'0 0.0
2015-Feb-07 22:30N 31°20' E 121°40'0 0.0
2015-Feb-07 21:33N 31°20' E 121°40'0 0.0
2015-Feb-07 20:33N 31°20' E 121°40'0 0.0
2015-Feb-07 19:33N 31°20' E 121°40'  

Dump ship's entire track history